Zagreb — 9AA5910 — position and weather

sailwx.info

Track history (hours):
 
Tides and Currents Weather Stations Pressure Air Temp Water Temp Dewpoint Dewpoint Depression Visibility Wind Speed Wind Dir Waves Ship Positions

Zagreb

Last reported at 2016-May-01 01:17 UTC. Time now 2016-May-01 04:18 UTC.
Position N 55°41' E 006°60'.

Length 229 m; draft 8.2 m.

Type: Cargo ship. MMSI: 238249000.

Date/timePositionNaut miles runAvg speedWind from/ knotsBaromVisibWave heightAir tempDewpointWater temp
2016-May-01 01:17N 55°41' E 006°60'912.6
2016-May-01 00:33N 55°32' E 007°00'1312.6
2016-Apr-30 23:33N 55°19' E 007°00'1312.7
2016-Apr-30 22:33N 55°07' E 007°00'1312.9
2016-Apr-30 21:33N 54°54' E 006°60'1313.3
2016-Apr-30 20:33N 54°40' E 007°00'2512.6
2016-Apr-30 18:34N 54°20' E 006°34'1412.6
2016-Apr-30 17:28N 54°09' E 006°22'1212.9
2016-Apr-30 16:33N 53°57' E 006°21'1312.6
2016-Apr-30 15:33N 53°44' E 006°19'10 9.6
2016-Apr-30 14:33N 53°37' E 006°29'1211.6
2016-Apr-30 13:33N 53°31' E 006°46'5 5.4
2016-Apr-30 12:32N 53°27' E 006°51'0 0.0
2016-Apr-30 11:32N 53°27' E 006°51'0 0.0
2016-Apr-30 10:29N 53°27' E 006°51'0 0.0
2016-Apr-30 09:32N 53°27' E 006°51'0 0.0
2016-Apr-30 08:32N 53°27' E 006°51'0 0.0
2016-Apr-30 07:32N 53°27' E 006°51'0 0.0
2016-Apr-30 06:32N 53°27' E 006°51'0 0.0
2016-Apr-30 05:32N 53°27' E 006°51'0 0.0
2016-Apr-30 04:32N 53°27' E 006°51'0 0.0
2016-Apr-30 03:32N 53°27' E 006°51'0 0.0
2016-Apr-30 02:29N 53°27' E 006°51'0 0.0
2016-Apr-30 01:32N 53°27' E 006°51'0 0.0
2016-Apr-30 00:32N 53°27' E 006°51'0 0.0
2016-Apr-29 23:32N 53°27' E 006°51'0 0.0
2016-Apr-29 22:32N 53°27' E 006°51'0 0.0
2016-Apr-29 21:32N 53°27' E 006°51'0 0.0
2016-Apr-29 20:32N 53°27' E 006°51'0 0.0
2016-Apr-29 19:32N 53°27' E 006°51'0 0.0
2016-Apr-29 18:32N 53°27' E 006°51'0 0.0
2016-Apr-29 17:32N 53°27' E 006°51'0 0.0
2016-Apr-29 16:32N 53°27' E 006°51'0 0.0
2016-Apr-29 15:32N 53°27' E 006°51'0 0.0
2016-Apr-29 14:32N 53°27' E 006°51'0 0.0
2016-Apr-29 13:32N 53°27' E 006°51'0 0.0
2016-Apr-29 12:32N 53°27' E 006°51'0 0.0
2016-Apr-29 11:26N 53°27' E 006°51'0 0.0
2016-Apr-29 10:32N 53°27' E 006°51'0 0.0
2016-Apr-29 09:32N 53°27' E 006°51'0 0.0
2016-Apr-29 08:32N 53°27' E 006°51'0 0.0
2016-Apr-29 07:32N 53°27' E 006°51'0 0.0
2016-Apr-29 06:32N 53°27' E 006°51'0 0.0
2016-Apr-29 05:32N 53°27' E 006°51'0 0.0
2016-Apr-29 04:26N 53°27' E 006°51'0 0.0
2016-Apr-29 03:32N 53°27' E 006°51'0 0.0
2016-Apr-29 02:32N 53°27' E 006°51'0 0.0
2016-Apr-29 01:32N 53°27' E 006°51'0 0.0
2016-Apr-29 00:32N 53°27' E 006°51'0 0.0
2016-Apr-28 23:32N 53°27' E 006°51'0 0.0
2016-Apr-28 22:32N 53°27' E 006°51'0 0.0
2016-Apr-28 21:32N 53°27' E 006°51'0 0.0
2016-Apr-28 20:32N 53°27' E 006°51'0 0.0
2016-Apr-28 19:32N 53°27' E 006°51'0 0.0
2016-Apr-28 18:32N 53°27' E 006°51'0 0.0
2016-Apr-28 17:32N 53°27' E 006°51'0 0.0
2016-Apr-28 16:32N 53°27' E 006°51'0 0.0
2016-Apr-28 15:32N 53°27' E 006°51'0 0.0
2016-Apr-28 14:32N 53°27' E 006°51'0 0.0
2016-Apr-28 13:32N 53°27' E 006°51'0 0.0
2016-Apr-28 12:32N 53°27' E 006°51'0 0.0
2016-Apr-28 11:32N 53°27' E 006°51'0 0.0
2016-Apr-28 10:32N 53°27' E 006°51'0 0.0
2016-Apr-28 09:32N 53°27' E 006°51'0 0.0
2016-Apr-28 08:32N 53°27' E 006°51'0 0.0
2016-Apr-28 07:32N 53°27' E 006°51'0 0.0
2016-Apr-28 06:32N 53°27' E 006°51'0 0.0
2016-Apr-28 05:32N 53°27' E 006°51'0 0.0
2016-Apr-28 04:32N 53°27' E 006°51'0 0.0
2016-Apr-28 03:32N 53°27' E 006°51'0 0.0
2016-Apr-28 02:32N 53°27' E 006°51'0 0.1
2016-Apr-28 01:33N 53°27' E 006°51'4 4.4
2016-Apr-28 00:34N 53°30' E 006°47'1110.8
2016-Apr-27 23:34N 53°37' E 006°33'10 9.9
2016-Apr-27 22:33N 53°39' E 006°16'4 1.8
2016-Apr-27 20:33N 53°39' E 006°10'0 0.1
2016-Apr-27 19:33N 53°39' E 006°10'0 0.1
2016-Apr-27 18:30N 53°39' E 006°10'0 0.0
2016-Apr-27 17:33N 53°39' E 006°10'1 1.0
2016-Apr-27 16:33N 53°39' E 006°08'9 9.1
2016-Apr-27 15:33N 53°39' E 005°53'1111.2
2016-Apr-27 14:33N 53°36' E 005°35'1211.6
2016-Apr-27 13:33N 53°32' E 005°17'3511.3
2016-Apr-27 10:29N 53°11' E 004°31'1112.3
2016-Apr-27 09:33N 53°01' E 004°22'1312.6
2016-Apr-27 08:32N 52°49' E 004°12'1212.6
2016-Apr-27 07:33N 52°37' E 004°05'1111.1
2016-Apr-27 06:33N 52°30' E 004°19'10 9.6
2016-Apr-27 05:34N 52°28' E 004°34'2 1.8
2016-Apr-27 04:33N 52°28' E 004°37'6 5.7
2016-Apr-27 03:34N 52°26' E 004°46'2 2.0
2016-Apr-27 02:33N 52°25' E 004°49'0 0.0
2016-Apr-27 01:33N 52°25' E 004°49'0 0.0
2016-Apr-27 00:33N 52°25' E 004°49'0 0.0
2016-Apr-26 23:33N 52°25' E 004°49'0 0.0
2016-Apr-26 22:33N 52°25' E 004°49'0 0.0
2016-Apr-26 21:33N 52°25' E 004°49'0 0.0
2016-Apr-26 20:33N 52°25' E 004°49'0 0.0
2016-Apr-26 19:33N 52°25' E 004°49'0 0.0
2016-Apr-26 18:33N 52°25' E 004°49'0 0.0
2016-Apr-26 17:33N 52°25' E 004°49'0 0.0
2016-Apr-26 16:33N 52°25' E 004°49'0 0.0
2016-Apr-26 15:33N 52°25' E 004°49'0 0.0
2016-Apr-26 14:33N 52°25' E 004°49'0 0.0
2016-Apr-26 13:33N 52°25' E 004°49'0 0.0
2016-Apr-26 12:33N 52°25' E 004°49'0 0.0
2016-Apr-26 11:33N 52°25' E 004°49'0 0.0
2016-Apr-26 10:33N 52°25' E 004°49'0 0.0
2016-Apr-26 09:33N 52°25' E 004°49'0 0.0
2016-Apr-26 08:33N 52°25' E 004°49'1 1.2
2016-Apr-26 07:34N 52°25' E 004°48'6 6.2
2016-Apr-26 06:34N 52°28' E 004°38'2 1.6
2016-Apr-26 05:34N 52°28' E 004°36'0 0.2
2016-Apr-26 04:34N 52°28' E 004°35'1 0.5
2016-Apr-26 03:33N 52°28' E 004°34'7 7.0
2016-Apr-26 02:33N 52°29' E 004°23'2 1.9
2016-Apr-26 01:33N 52°30' E 004°20'8 8.1
2016-Apr-26 00:33N 52°32' E 004°07'1313.0
2016-Apr-25 23:32N 52°44' E 003°58'1312.9
2016-Apr-25 22:30N 52°57' E 003°59'1212.5
2016-Apr-25 21:32N 53°05' E 004°15'1111.5
2016-Apr-25 20:32N 53°14' E 004°27'1211.8
2016-Apr-25 19:33N 53°25' E 004°33'1211.8
2016-Apr-25 18:33N 53°37' E 004°39'1312.5
2016-Apr-25 17:32N 53°48' E 004°48'1313.2
2016-Apr-25 16:33N 54°00' E 004°56'1513.3
2016-Apr-25 15:26N 54°14' E 005°06'2613.1
2016-Apr-25 13:28N 54°38' E 005°23'1212.7
2016-Apr-25 12:33N 54°48' E 005°31'1312.9
2016-Apr-25 11:33N 55°00' E 005°40'1312.9
2016-Apr-25 10:32N 55°12' E 005°49'1313.0
2016-Apr-25 09:33N 55°24' E 005°58'21411.9
2016-Apr-24 15:33N 57°48' E 010°45'9 9.3
2016-Apr-24 14:33N 57°43' E 010°59'1212.5
2016-Apr-24 13:33N 57°34' E 011°14'1312.5
2016-Apr-24 12:33N 57°24' E 011°28'1312.6
2016-Apr-24 11:33N 57°12' E 011°37'1312.6
2016-Apr-24 10:33N 57°00' E 011°44'1212.4
2016-Apr-24 09:33N 56°48' E 011°51'4911.8
2016-Apr-24 05:25N 56°06' E 011°09'4510.5
2016-Apr-24 01:10N 55°21' E 011°02'610.0
2016-Apr-24 00:33N 55°15' E 011°05'1110.7
2016-Apr-23 23:33N 55°05' E 010°59'1111.3
2016-Apr-23 22:33N 54°55' E 010°52'1212.0
2016-Apr-23 21:33N 54°43' E 010°47'1110.9
2016-Apr-23 20:33N 54°36' E 011°01'1211.5
2016-Apr-23 19:33N 54°33' E 011°21'1212.0
2016-Apr-23 18:33N 54°28' E 011°39'1211.9
2016-Apr-23 17:33N 54°26' E 011°60'1010.1
2016-Apr-23 16:32N 54°32' E 012°14'1111.6
2016-Apr-23 15:33N 54°40' E 012°28'3411.2
2016-Apr-23 12:34N 54°55' E 013°20'1313.1
2016-Apr-23 11:33N 54°60' E 013°42'1312.9
2016-Apr-23 10:33N 55°03' E 014°03'1313.3
2016-Apr-23 09:33N 55°14' E 014°18'1413.6
2016-Apr-23 08:34N 55°24' E 014°33'1313.1
2016-Apr-23 07:33N 55°31' E 014°53'1313.1
2016-Apr-23 06:33N 55°37' E 015°14'7013.1
2016-Apr-23 01:11N 55°56' E 017°14'813.2
2016-Apr-23 00:34N 55°58' E 017°28'25312.5
2016-Apr-22 04:20N 59°21' E 022°09'3412.2
2016-Apr-22 01:33N 59°36' E 023°09'1312.6
2016-Apr-22 00:33N 59°40' E 023°32'1312.4
2016-Apr-21 23:33N 59°44' E 023°56'6212.4
2016-Apr-21 18:33N 59°56' E 025°56'1211.9
2016-Apr-21 17:33N 59°60' E 026°19'1211.6
2016-Apr-21 16:33N 60°01' E 026°42'1211.8
2016-Apr-21 15:33N 60°00' E 027°06'1212.1
2016-Apr-21 14:33N 60°06' E 027°26'1211.7
2016-Apr-21 13:33N 60°12' E 027°47'1211.9
2016-Apr-21 12:33N 60°09' E 028°10'1211.5
2016-Apr-21 11:33N 60°04' E 028°31'8 8.0
2016-Apr-21 10:33N 59°56' E 028°34'8 7.6
2016-Apr-21 09:33N 59°50' E 028°26'8 8.2
2016-Apr-21 08:33N 59°41' E 028°25'0 0.1
2016-Apr-21 07:33N 59°41' E 028°25'0 0.0
2016-Apr-21 06:30N 59°41' E 028°25'0 0.0
2016-Apr-21 05:30N 59°41' E 028°25'0 0.0
2016-Apr-21 04:33N 59°41' E 028°25'0 0.0
2016-Apr-21 03:33N 59°41' E 028°25'0 0.0
2016-Apr-21 02:30N 59°41' E 028°25'0 0.0
2016-Apr-21 01:33N 59°41' E 028°25'  
Track history (hours):
 
Tides and Currents Weather Stations Pressure Air Temp Water Temp Dewpoint Dewpoint Depression Visibility Wind Speed Wind Dir Waves Ship Positions

Zagreb

Last reported at 2016-May-01 01:17 UTC. Time now 2016-May-01 04:19 UTC.
Position N 55°41' E 006°60'.

Length 229 m; draft 8.2 m.

Type: Cargo ship. MMSI: 238249000.

Date/timePositionNaut miles runAvg speedWind from/ knotsBaromVisibWave heightAir tempDewpointWater temp
2016-May-01 01:17N 55°41' E 006°60'912.6
2016-May-01 00:33N 55°32' E 007°00'1312.6
2016-Apr-30 23:33N 55°19' E 007°00'1312.7
2016-Apr-30 22:33N 55°07' E 007°00'1312.9
2016-Apr-30 21:33N 54°54' E 006°60'1313.3
2016-Apr-30 20:33N 54°40' E 007°00'2512.6
2016-Apr-30 18:34N 54°20' E 006°34'1412.6
2016-Apr-30 17:28N 54°09' E 006°22'1212.9
2016-Apr-30 16:33N 53°57' E 006°21'1312.6
2016-Apr-30 15:33N 53°44' E 006°19'10 9.6
2016-Apr-30 14:33N 53°37' E 006°29'1211.6
2016-Apr-30 13:33N 53°31' E 006°46'5 5.4
2016-Apr-30 12:32N 53°27' E 006°51'0 0.0
2016-Apr-30 11:32N 53°27' E 006°51'0 0.0
2016-Apr-30 10:29N 53°27' E 006°51'0 0.0
2016-Apr-30 09:32N 53°27' E 006°51'0 0.0
2016-Apr-30 08:32N 53°27' E 006°51'0 0.0
2016-Apr-30 07:32N 53°27' E 006°51'0 0.0
2016-Apr-30 06:32N 53°27' E 006°51'0 0.0
2016-Apr-30 05:32N 53°27' E 006°51'0 0.0
2016-Apr-30 04:32N 53°27' E 006°51'0 0.0
2016-Apr-30 03:32N 53°27' E 006°51'0 0.0
2016-Apr-30 02:29N 53°27' E 006°51'0 0.0
2016-Apr-30 01:32N 53°27' E 006°51'0 0.0
2016-Apr-30 00:32N 53°27' E 006°51'0 0.0
2016-Apr-29 23:32N 53°27' E 006°51'0 0.0
2016-Apr-29 22:32N 53°27' E 006°51'0 0.0
2016-Apr-29 21:32N 53°27' E 006°51'0 0.0
2016-Apr-29 20:32N 53°27' E 006°51'0 0.0
2016-Apr-29 19:32N 53°27' E 006°51'0 0.0
2016-Apr-29 18:32N 53°27' E 006°51'0 0.0
2016-Apr-29 17:32N 53°27' E 006°51'0 0.0
2016-Apr-29 16:32N 53°27' E 006°51'0 0.0
2016-Apr-29 15:32N 53°27' E 006°51'0 0.0
2016-Apr-29 14:32N 53°27' E 006°51'0 0.0
2016-Apr-29 13:32N 53°27' E 006°51'0 0.0
2016-Apr-29 12:32N 53°27' E 006°51'0 0.0
2016-Apr-29 11:26N 53°27' E 006°51'0 0.0
2016-Apr-29 10:32N 53°27' E 006°51'0 0.0
2016-Apr-29 09:32N 53°27' E 006°51'0 0.0
2016-Apr-29 08:32N 53°27' E 006°51'0 0.0
2016-Apr-29 07:32N 53°27' E 006°51'0 0.0
2016-Apr-29 06:32N 53°27' E 006°51'0 0.0
2016-Apr-29 05:32N 53°27' E 006°51'0 0.0
2016-Apr-29 04:26N 53°27' E 006°51'0 0.0
2016-Apr-29 03:32N 53°27' E 006°51'0 0.0
2016-Apr-29 02:32N 53°27' E 006°51'0 0.0
2016-Apr-29 01:32N 53°27' E 006°51'0 0.0
2016-Apr-29 00:32N 53°27' E 006°51'0 0.0
2016-Apr-28 23:32N 53°27' E 006°51'0 0.0
2016-Apr-28 22:32N 53°27' E 006°51'0 0.0
2016-Apr-28 21:32N 53°27' E 006°51'0 0.0
2016-Apr-28 20:32N 53°27' E 006°51'0 0.0
2016-Apr-28 19:32N 53°27' E 006°51'0 0.0
2016-Apr-28 18:32N 53°27' E 006°51'0 0.0
2016-Apr-28 17:32N 53°27' E 006°51'0 0.0
2016-Apr-28 16:32N 53°27' E 006°51'0 0.0
2016-Apr-28 15:32N 53°27' E 006°51'0 0.0
2016-Apr-28 14:32N 53°27' E 006°51'0 0.0
2016-Apr-28 13:32N 53°27' E 006°51'0 0.0
2016-Apr-28 12:32N 53°27' E 006°51'0 0.0
2016-Apr-28 11:32N 53°27' E 006°51'0 0.0
2016-Apr-28 10:32N 53°27' E 006°51'0 0.0
2016-Apr-28 09:32N 53°27' E 006°51'0 0.0
2016-Apr-28 08:32N 53°27' E 006°51'0 0.0
2016-Apr-28 07:32N 53°27' E 006°51'0 0.0
2016-Apr-28 06:32N 53°27' E 006°51'0 0.0
2016-Apr-28 05:32N 53°27' E 006°51'0 0.0
2016-Apr-28 04:32N 53°27' E 006°51'0 0.0
2016-Apr-28 03:32N 53°27' E 006°51'0 0.0
2016-Apr-28 02:32N 53°27' E 006°51'0 0.1
2016-Apr-28 01:33N 53°27' E 006°51'4 4.4
2016-Apr-28 00:34N 53°30' E 006°47'1110.8
2016-Apr-27 23:34N 53°37' E 006°33'10 9.9
2016-Apr-27 22:33N 53°39' E 006°16'4 1.8
2016-Apr-27 20:33N 53°39' E 006°10'0 0.1
2016-Apr-27 19:33N 53°39' E 006°10'0 0.1
2016-Apr-27 18:30N 53°39' E 006°10'0 0.0
2016-Apr-27 17:33N 53°39' E 006°10'1 1.0
2016-Apr-27 16:33N 53°39' E 006°08'9 9.1
2016-Apr-27 15:33N 53°39' E 005°53'1111.2
2016-Apr-27 14:33N 53°36' E 005°35'1211.6
2016-Apr-27 13:33N 53°32' E 005°17'3511.3
2016-Apr-27 10:29N 53°11' E 004°31'1112.3
2016-Apr-27 09:33N 53°01' E 004°22'1312.6
2016-Apr-27 08:32N 52°49' E 004°12'1212.6
2016-Apr-27 07:33N 52°37' E 004°05'1111.1
2016-Apr-27 06:33N 52°30' E 004°19'10 9.6
2016-Apr-27 05:34N 52°28' E 004°34'2 1.8
2016-Apr-27 04:33N 52°28' E 004°37'6 5.7
2016-Apr-27 03:34N 52°26' E 004°46'2 2.0
2016-Apr-27 02:33N 52°25' E 004°49'0 0.0
2016-Apr-27 01:33N 52°25' E 004°49'0 0.0
2016-Apr-27 00:33N 52°25' E 004°49'0 0.0
2016-Apr-26 23:33N 52°25' E 004°49'0 0.0
2016-Apr-26 22:33N 52°25' E 004°49'0 0.0
2016-Apr-26 21:33N 52°25' E 004°49'0 0.0
2016-Apr-26 20:33N 52°25' E 004°49'0 0.0
2016-Apr-26 19:33N 52°25' E 004°49'0 0.0
2016-Apr-26 18:33N 52°25' E 004°49'0 0.0
2016-Apr-26 17:33N 52°25' E 004°49'0 0.0
2016-Apr-26 16:33N 52°25' E 004°49'0 0.0
2016-Apr-26 15:33N 52°25' E 004°49'0 0.0
2016-Apr-26 14:33N 52°25' E 004°49'0 0.0
2016-Apr-26 13:33N 52°25' E 004°49'0 0.0
2016-Apr-26 12:33N 52°25' E 004°49'0 0.0
2016-Apr-26 11:33N 52°25' E 004°49'0 0.0
2016-Apr-26 10:33N 52°25' E 004°49'0 0.0
2016-Apr-26 09:33N 52°25' E 004°49'0 0.0
2016-Apr-26 08:33N 52°25' E 004°49'1 1.2
2016-Apr-26 07:34N 52°25' E 004°48'6 6.2
2016-Apr-26 06:34N 52°28' E 004°38'2 1.6
2016-Apr-26 05:34N 52°28' E 004°36'0 0.2
2016-Apr-26 04:34N 52°28' E 004°35'1 0.5
2016-Apr-26 03:33N 52°28' E 004°34'7 7.0
2016-Apr-26 02:33N 52°29' E 004°23'2 1.9
2016-Apr-26 01:33N 52°30' E 004°20'8 8.1
2016-Apr-26 00:33N 52°32' E 004°07'1313.0
2016-Apr-25 23:32N 52°44' E 003°58'1312.9
2016-Apr-25 22:30N 52°57' E 003°59'1212.5
2016-Apr-25 21:32N 53°05' E 004°15'1111.5
2016-Apr-25 20:32N 53°14' E 004°27'1211.8
2016-Apr-25 19:33N 53°25' E 004°33'1211.8
2016-Apr-25 18:33N 53°37' E 004°39'1312.5
2016-Apr-25 17:32N 53°48' E 004°48'1313.2
2016-Apr-25 16:33N 54°00' E 004°56'1513.3
2016-Apr-25 15:26N 54°14' E 005°06'2613.1
2016-Apr-25 13:28N 54°38' E 005°23'1212.7
2016-Apr-25 12:33N 54°48' E 005°31'1312.9
2016-Apr-25 11:33N 55°00' E 005°40'1312.9
2016-Apr-25 10:32N 55°12' E 005°49'1313.0
2016-Apr-25 09:33N 55°24' E 005°58'21411.9
2016-Apr-24 15:33N 57°48' E 010°45'9 9.3
2016-Apr-24 14:33N 57°43' E 010°59'1212.5
2016-Apr-24 13:33N 57°34' E 011°14'1312.5
2016-Apr-24 12:33N 57°24' E 011°28'1312.6
2016-Apr-24 11:33N 57°12' E 011°37'1312.6
2016-Apr-24 10:33N 57°00' E 011°44'1212.4
2016-Apr-24 09:33N 56°48' E 011°51'4911.8
2016-Apr-24 05:25N 56°06' E 011°09'4510.5
2016-Apr-24 01:10N 55°21' E 011°02'610.0
2016-Apr-24 00:33N 55°15' E 011°05'1110.7
2016-Apr-23 23:33N 55°05' E 010°59'1111.3
2016-Apr-23 22:33N 54°55' E 010°52'1212.0
2016-Apr-23 21:33N 54°43' E 010°47'1110.9
2016-Apr-23 20:33N 54°36' E 011°01'1211.5
2016-Apr-23 19:33N 54°33' E 011°21'1212.0
2016-Apr-23 18:33N 54°28' E 011°39'1211.9
2016-Apr-23 17:33N 54°26' E 011°60'1010.1
2016-Apr-23 16:32N 54°32' E 012°14'1111.6
2016-Apr-23 15:33N 54°40' E 012°28'3411.2
2016-Apr-23 12:34N 54°55' E 013°20'1313.1
2016-Apr-23 11:33N 54°60' E 013°42'1312.9
2016-Apr-23 10:33N 55°03' E 014°03'1313.3
2016-Apr-23 09:33N 55°14' E 014°18'1413.6
2016-Apr-23 08:34N 55°24' E 014°33'1313.1
2016-Apr-23 07:33N 55°31' E 014°53'1313.1
2016-Apr-23 06:33N 55°37' E 015°14'7013.1
2016-Apr-23 01:11N 55°56' E 017°14'813.2
2016-Apr-23 00:34N 55°58' E 017°28'25312.5
2016-Apr-22 04:20N 59°21' E 022°09'3412.2
2016-Apr-22 01:33N 59°36' E 023°09'1312.6
2016-Apr-22 00:33N 59°40' E 023°32'1312.4
2016-Apr-21 23:33N 59°44' E 023°56'6212.4
2016-Apr-21 18:33N 59°56' E 025°56'1211.9
2016-Apr-21 17:33N 59°60' E 026°19'1211.6
2016-Apr-21 16:33N 60°01' E 026°42'1211.8
2016-Apr-21 15:33N 60°00' E 027°06'1212.1
2016-Apr-21 14:33N 60°06' E 027°26'1211.7
2016-Apr-21 13:33N 60°12' E 027°47'1211.9
2016-Apr-21 12:33N 60°09' E 028°10'1211.5
2016-Apr-21 11:33N 60°04' E 028°31'8 8.0
2016-Apr-21 10:33N 59°56' E 028°34'8 7.6
2016-Apr-21 09:33N 59°50' E 028°26'8 8.2
2016-Apr-21 08:33N 59°41' E 028°25'0 0.1
2016-Apr-21 07:33N 59°41' E 028°25'0 0.0
2016-Apr-21 06:30N 59°41' E 028°25'0 0.0
2016-Apr-21 05:30N 59°41' E 028°25'0 0.0
2016-Apr-21 04:33N 59°41' E 028°25'0 0.0
2016-Apr-21 03:33N 59°41' E 028°25'0 0.0
2016-Apr-21 02:30N 59°41' E 028°25'0 0.0
2016-Apr-21 01:33N 59°41' E 028°25'  

Dump ship's entire track history